Rechercher aéroport 
image banner adimage banner adimage banner ad
image banner ad

KTOA - Zamperini Field

Situé à Torrance, United States

ICAO - TOA, IATA -

Données fournies par Airmate  

Information générale

Coordonnées: N33°48'12" W118°20'23"
Élévation : 103 feet MSL.
Variation magnétique : 14° East
Voir autres Aéroports à California

Données opérationnelles

Special qualification required
Heure actuelle UTC:
Heure actuelle locale:
Météo
METAR: KTOA 211947Z 28011KT 10SM SKC 28/18 A3005
Voir NOTAMs / SUP AIP / TFR affectant cet aéroport [VIEW]
Fréquences de communication: [VIEW]

Pistes:

Identifiant RWYQFULongueur (ft)Largeur (ft)SurfaceLDA (ft)
11R128°300075OTHER
29L308°300075OTHER
11L128°5001150OTHER
29R308°5001150OTHER

Coordonnées de l'aéroport

Adresse: Torrance United States

Autres services d'aviation

Écoles de pilotage

Rolling Hills Aviation, Inc.

Rolling Hills Aviation, Inc.
aqmd@msn.com+1(310)375-0061

South Bay Aviation, Inc.

South Bay Aviation, Inc.
sealsr@ix.netcom.com+1(310)791-5454

Jj Helicopters, Inc.

Jj Helicopters, Inc.
info@jjheli.com+1(310)257-8622

Advanced Flight

Advanced Flight
nfo@advflt.com+1(310)908-8812

Pacific Skies Aviation

Pacific Skies Aviation
info@pacificskies.com+1(888)579-6999

South Coast Aeronautics

South Coast Aeronautics

Sling Flying Club

Sling Flying Club
fly@flyingclub.aero+1(424)241-0491

King Air First Officer

King Air First Officer

Vue satellite de KTOA